Cascade, ID (83611)

5:12 AM MST on February 28, 2017 (GMT -0700)
TMA Office | | Change Station

Elev 4875 ft 44.67 °N, 116.12 °W | Updated 12 minutes ago

Overcast
Overcast
22.1 °F
Feels Like 22 °F
N
0.7
Wind Variable Wind from North
Gusts 6.0 mph

Today
High -- | Low -- °F
--% Chance of Precip.
Yesterday
High -- | Low -- °F
Precip. -- in
Pressure 29.74 in
Visibility 4.0 miles
Clouds Mostly Cloudy 2400 ft
Overcast 3500 ft
Windchill 22 °F
Dew Point 20 °F
Humidity 91%
Rainfall 0.00 in
Snow Depth Not available.
7:22 AM 6:31 PM
Waxing Crescent, 4% visible
METAR KMYL 281151Z AUTO 16006KT 4SM -SN BR BKN024 OVC035 M06/M08 A2962 RMK AO2 SNB23 SLP070 P0000 60009 70014 T10611083 11056 21061 53001
Pressure 29.74 in
Visibility 4.0 miles
Clouds Mostly Cloudy 2400 ft
Overcast 3500 ft
Windchill 22 °F
Dew Point 20 °F
Humidity 91%
Rainfall 0.00 in
Snow Depth Not available.
7:22 AM 6:31 PM
Waxing Crescent, 4% visible
METAR KMYL 281151Z AUTO 16006KT 4SM -SN BR BKN024 OVC035 M06/M08 A2962 RMK AO2 SNB23 SLP070 P0000 60009 70014 T10611083 11056 21061 53001

Get Your Daily Forecast Email!

Thanks for signing up!

Be on the lookout for a verification email in your inbox.

You'll start receiving the daily forecast at 8 AM.

×

10-Day Weather Forecast

Almanac

Astronomy

Feb. 28, 2017 Rise Set
Actual Time
Civil Twilight
Nautical Twilight
Astronomical Twilight
Moon
Length of Visible Light
Length of Day
Tomorrow will be .
, % of the Moon is Illuminated

Today's Extremes

State Highs State Lows

Community

WunderPhotos

Upload Photos

1,962,540 photos uploaded!

WunderBlog® & News

Nearby

Air Quality

  Air Quality AQ Index Pollutant
Not available.

Snow Depth

Station Depth Elevation

Earthquake Activity

City Distance Mag. Time & Date
Minimum magnitude displayed is 2.5.

Coastal Water Temperatures

Place Temperature

Stations

Nearby Weather Stations

Station Location Temp. Windchill Dew Point Humidity Wind Precip. Elev Updated Type
                   

Watches & Warnings

There are currently no watches in effect.